Time;durP1;ratioP1;P1;durP2;ratioP2;P2;SDS_P1;SDS_P2;PMS_P1;PMS_P2;Temp;Humidity;BMP_temperature;BMP_pressure;BME280_temperature;BME280_humidity;BME280_pressure;Samples;Min_cycle;Max_cycle;Signal;HPM_P1;HPM_P2
2021/09/13 00:00:10;;;;;;;3.55;2.22;;;;;;;10.73;100.00;93264.56;2117968;27;20023;-81
2021/09/13 00:01:11;;;;;;;3.58;2.38;;;;;;;10.78;100.00;93266.00;2121016;27;20027;-77
2021/09/13 00:02:12;;;;;;;3.80;2.30;;;;;;;10.66;100.00;93264.69;2118332;27;20027;-78
2021/09/13 00:03:13;;;;;;;2.60;2.40;;;;;;;10.62;100.00;93269.34;2120699;27;20810;-80
2021/09/13 00:04:14;;;;;;;2.85;2.40;;;;;;;10.61;100.00;93265.19;2119123;27;20026;-78
2021/09/13 00:05:15;;;;;;;2.42;2.22;;;;;;;10.53;100.00;93264.56;2120472;27;20510;-78
2021/09/13 00:06:16;;;;;;;4.20;2.88;;;;;;;10.54;100.00;93266.06;2118778;27;20027;-79
2021/09/13 00:07:17;;;;;;;3.45;2.22;;;;;;;10.61;100.00;93264.41;2120051;27;20546;-80
2021/09/13 00:08:18;;;;;;;2.95;2.72;;;;;;;10.61;100.00;93267.84;2120468;27;20054;-79
2021/09/13 00:09:19;;;;;;;4.45;2.38;;;;;;;10.59;100.00;93270.94;2119974;27;20028;-82
2021/09/13 00:10:20;;;;;;;3.33;2.70;;;;;;;10.50;100.00;93268.06;2110916;28;20177;-79
2021/09/13 00:11:21;;;;;;;3.47;2.60;;;;;;;10.53;100.00;93272.56;2119766;27;20024;-78
2021/09/13 00:12:22;;;;;;;4.82;2.78;;;;;;;10.50;100.00;93267.31;2119619;27;20055;-80
2021/09/13 00:13:24;;;;;;;3.10;2.90;;;;;;;10.44;100.00;93272.34;2110844;28;20020;-79
2021/09/13 00:14:25;;;;;;;3.67;2.40;;;;;;;10.50;100.00;93267.31;2119999;27;20019;-81
2021/09/13 00:15:26;;;;;;;5.20;2.33;;;;;;;10.49;100.00;93269.22;2119727;27;20019;-80
2021/09/13 00:16:27;;;;;;;2.67;2.47;;;;;;;10.47;100.00;93268.88;2111667;28;20023;-77
2021/09/13 00:17:28;;;;;;;5.03;2.63;;;;;;;10.46;100.00;93267.38;2115547;27;20015;-83
2021/09/13 00:18:28;;;;;;;2.88;2.55;;;;;;;10.45;100.00;93271.22;2118338;27;20024;-78
2021/09/13 00:19:29;;;;;;;2.45;2.25;;;;;;;10.41;100.00;93265.19;2106858;28;20024;-80
2021/09/13 00:20:30;;;;;;;3.42;2.38;;;;;;;10.40;100.00;93260.97;2120703;27;20117;-78
2021/09/13 00:21:31;;;;;;;2.83;2.47;;;;;;;10.42;100.00;93272.03;2118727;27;20020;-79
2021/09/13 00:22:32;;;;;;;2.50;2.30;;;;;;;10.42;100.00;93265.94;2112315;28;20527;-79
2021/09/13 00:23:33;;;;;;;4.57;2.33;;;;;;;10.35;100.00;93269.47;2109639;28;20465;-81
2021/09/13 00:24:34;;;;;;;3.03;2.55;;;;;;;10.38;100.00;93266.00;2121082;27;20042;-80
2021/09/13 00:25:35;;;;;;;5.45;2.60;;;;;;;10.41;100.00;93259.84;2117601;27;20026;-82
2021/09/13 00:26:36;;;;;;;2.75;2.55;;;;;;;10.39;100.00;93262.16;2121990;27;20110;-80
2021/09/13 00:27:38;;;;;;;3.08;2.78;;;;;;;10.33;100.00;93259.22;2117675;27;20066;-79
2021/09/13 00:28:39;;;;;;;3.65;2.60;;;;;;;10.28;100.00;93261.59;2109896;28;20024;-80
2021/09/13 00:29:40;;;;;;;2.95;2.40;;;;;;;10.29;100.00;93261.19;2106749;28;20031;-81
2021/09/13 00:30:41;;;;;;;3.20;2.90;;;;;;;10.22;100.00;93258.59;2114499;27;20031;-82
2021/09/13 00:31:42;;;;;;;2.90;2.70;;;;;;;10.29;100.00;93263.88;2117375;27;20387;-78
2021/09/13 00:32:43;;;;;;;4.28;2.60;;;;;;;10.33;100.00;93261.88;2114914;28;20061;-77
2021/09/13 00:33:44;;;;;;;5.00;2.97;;;;;;;10.30;100.00;93256.59;2118068;27;20023;-79
2021/09/13 00:34:45;;;;;;;3.35;2.40;;;;;;;10.27;100.00;93260.09;2118212;27;20111;-81
2021/09/13 00:35:46;;;;;;;4.72;2.92;;;;;;;10.36;100.00;93256.88;2118405;27;20447;-80
2021/09/13 00:36:47;;;;;;;3.28;2.97;;;;;;;10.31;100.00;93260.78;2117982;27;20045;-77
2021/09/13 00:37:48;;;;;;;3.90;2.63;;;;;;;10.23;100.00;93256.72;2117782;27;20022;-80
2021/09/13 00:38:49;;;;;;;5.13;3.58;;;;;;;10.24;100.00;93261.66;2122423;27;20022;-82
2021/09/13 00:39:50;;;;;;;5.07;2.80;;;;;;;10.20;100.00;93257.53;2110389;28;20488;-79
2021/09/13 00:40:51;;;;;;;4.65;2.60;;;;;;;10.18;100.00;93273.94;2107062;28;20754;-79
2021/09/13 00:41:52;;;;;;;2.70;2.53;;;;;;;10.21;100.00;93261.69;2123509;27;20509;-80
2021/09/13 00:42:53;;;;;;;2.80;2.30;;;;;;;10.15;100.00;93266.03;2111437;28;20028;-78
2021/09/13 00:43:54;;;;;;;3.13;2.83;;;;;;;10.20;100.00;93262.88;2124083;27;20038;-77
2021/09/13 00:44:57;;;;;;;3.35;2.50;;;;;;;10.22;100.00;93263.94;2124271;27;20112;-80
2021/09/13 00:45:57;;;;;;;4.63;2.80;;;;;;;10.17;100.00;93259.09;2123656;27;20019;-82
2021/09/13 00:46:59;;;;;;;3.63;2.60;;;;;;;10.15;100.00;93264.09;2119255;28;20092;-78
2021/09/13 00:48:00;;;;;;;2.88;2.45;;;;;;;10.21;100.00;93261.69;2114660;28;20027;-81
2021/09/13 00:49:01;;;;;;;3.47;2.40;;;;;;;10.25;100.00;93263.16;2119166;27;20441;-77
2021/09/13 00:50:03;;;;;;;2.90;2.30;;;;;;;10.22;100.00;93263.94;2114891;28;20027;-78
2021/09/13 00:51:04;;;;;;;3.95;2.47;;;;;;;10.28;100.00;93264.28;2106613;28;20027;-80
2021/09/13 00:52:06;;;;;;;3.22;2.67;;;;;;;10.35;100.00;93258.78;2101626;28;20370;-78
2021/09/13 00:53:07;;;;;;;3.28;3.03;;;;;;;10.32;100.00;93256.97;2123478;27;20054;-78
2021/09/13 00:54:08;;;;;;;5.57;2.78;;;;;;;10.29;100.00;93261.19;2123312;27;20027;-81
2021/09/13 00:55:09;;;;;;;3.00;2.67;;;;;;;10.32;100.00;93255.03;2121130;27;20027;-80
2021/09/13 00:56:10;;;;;;;7.63;2.90;;;;;;;10.31;100.00;93252.75;2118113;27;20030;-78
2021/09/13 00:57:12;;;;;;;5.50;3.05;;;;;;;10.36;100.00;93259.53;2110747;28;20107;-79
2021/09/13 00:58:12;;;;;;;4.53;2.60;;;;;;;10.25;100.00;93257.81;2110733;27;20026;-81
2021/09/13 00:59:14;;;;;;;4.45;2.88;;;;;;;10.21;100.00;93253.69;2111512;28;20473;-79
2021/09/13 01:00:16;;;;;;;6.38;2.70;;;;;;;10.20;100.00;93255.59;2110738;28;20023;-80
2021/09/13 01:01:17;;;;;;;2.50;2.30;;;;;;;10.32;100.00;93254.28;2115389;27;20096;-82
2021/09/13 01:02:18;;;;;;;3.05;2.75;;;;;;;10.40;100.00;93252.97;2123890;27;20015;-83
2021/09/13 01:03:19;;;;;;;2.83;2.63;;;;;;;10.30;100.00;93248.59;2120217;27;20034;-80
2021/09/13 01:04:20;;;;;;;4.38;2.70;;;;;;;10.48;100.00;93253.59;2119324;27;20026;-82
2021/09/13 01:05:21;;;;;;;7.75;3.30;;;;;;;10.43;100.00;93244.13;2110910;28;20067;-82
2021/09/13 01:06:22;;;;;;;4.38;2.47;;;;;;;10.37;100.00;93245.78;2110595;28;20023;-76
2021/09/13 01:07:24;;;;;;;12.68;2.95;;;;;;;10.35;100.00;93248.09;2110463;28;20040;-81
2021/09/13 01:08:25;;;;;;;11.63;2.75;;;;;;;10.33;100.00;93242.44;2122390;27;20023;-75
2021/09/13 01:09:26;;;;;;;2.88;2.67;;;;;;;10.36;100.00;93246.97;2119077;27;20073;-84
2021/09/13 01:10:28;;;;;;;5.20;2.97;;;;;;;10.35;100.00;93240.09;2119298;27;20102;-80
2021/09/13 01:11:29;;;;;;;4.35;2.88;;;;;;;10.26;100.00;93243.31;2114998;28;20120;-80
2021/09/13 01:12:30;;;;;;;3.05;2.58;;;;;;;10.22;100.00;93241.84;2118223;27;20034;-80
2021/09/13 01:13:31;;;;;;;2.83;2.63;;;;;;;10.19;100.00;93254.09;2120130;27;20051;-79
2021/09/13 01:14:41;;;;;;;2.88;2.67;;;;;;;10.26;100.00;93256.66;2110531;28;20032;-81
2021/09/13 01:15:42;;;;;;;2.67;2.45;;;;;;;10.16;100.00;93243.47;2109351;28;20089;-78
2021/09/13 01:16:44;;;;;;;2.67;2.47;;;;;;;10.23;100.00;93241.44;2113409;28;20038;-80
2021/09/13 01:17:45;;;;;;;4.13;2.80;;;;;;;10.29;100.00;93242.50;2107443;28;20126;-82
2021/09/13 01:18:46;;;;;;;2.70;2.50;;;;;;;10.26;100.00;93242.56;2106453;28;20024;-80
2021/09/13 01:19:47;;;;;;;2.33;2.13;;;;;;;10.19;100.00;93240.00;2106769;28;20028;-78
2021/09/13 01:20:48;;;;;;;4.20;2.72;;;;;;;10.24;100.00;93239.53;2123143;27;20019;-85
2021/09/13 01:21:49;;;;;;;4.45;2.70;;;;;;;10.22;100.00;93241.84;2114610;27;20031;-81
2021/09/13 01:22:53;;;;;;;6.53;2.30;;;;;;;10.12;100.00;93240.88;2118081;27;20058;-79
2021/09/13 01:23:54;;;;;;;4.38;2.40;;;;;;;10.05;100.00;93243.66;2118204;27;20030;-79
2021/09/13 01:24:55;;;;;;;2.90;2.70;;;;;;;10.09;100.00;93236.34;2109693;28;20491;-80
2021/09/13 01:25:56;;;;;;;4.78;2.75;;;;;;;10.15;100.00;93245.41;2109685;28;20488;-84
2021/09/13 01:27:08;;;;;;;3.90;2.80;;;;;;;10.14;100.00;93238.56;2118122;27;20030;-78
2021/09/13 01:28:09;;;;;;;4.15;2.42;;;;;;;10.15;100.00;93240.06;2122739;27;20023;-78
2021/09/13 01:29:10;;;;;;;3.00;2.70;;;;;;;10.07;100.00;93233.34;2112509;28;20055;-77
2021/09/13 01:30:11;;;;;;;2.75;2.10;;;;;;;10.05;100.00;93233.75;2106419;28;20403;-80
2021/09/13 01:31:12;;;;;;;2.50;2.30;;;;;;;10.04;100.00;93228.81;2102792;28;20032;-80
2021/09/13 01:32:13;;;;;;;3.03;2.70;;;;;;;10.05;100.00;93238.31;2111343;28;20120;-78
2021/09/13 01:33:14;;;;;;;4.40;2.70;;;;;;;10.11;100.00;93233.28;2117056;27;20098;-76
2021/09/13 01:34:15;;;;;;;2.47;2.28;;;;;;;10.06;100.00;93229.91;2110447;28;20060;-81
2021/09/13 01:35:17;;;;;;;2.85;2.55;;;;;;;10.07;100.00;93233.34;2119826;27;20163;-81
2021/09/13 01:36:18;;;;;;;3.22;2.92;;;;;;;10.01;100.00;93234.97;2118643;27;20022;-78
2021/09/13 01:37:19;;;;;;;2.53;2.33;;;;;;;9.87;100.00;93233.28;2119333;27;20026;-82
2021/09/13 01:38:25;;;;;;;4.60;2.55;;;;;;;9.91;100.00;93238.56;2121146;27;20098;-78
2021/09/13 01:39:26;;;;;;;3.75;2.60;;;;;;;9.90;100.00;93224.47;2123766;27;20026;-77
2021/09/13 01:40:27;;;;;;;2.80;2.60;;;;;;;9.94;100.00;93235.09;2123064;27;20538;-76
2021/09/13 01:41:28;;;;;;;5.13;2.40;;;;;;;9.98;100.00;93225.09;2114621;28;20053;-79
2021/09/13 01:42:29;;;;;;;2.50;2.30;;;;;;;10.04;100.00;93226.88;2123151;27;20019;-79
2021/09/13 01:43:30;;;;;;;2.60;2.40;;;;;;;10.00;100.00;93231.53;2123177;27;20022;-82
2021/09/13 01:44:31;;;;;;;3.13;2.58;;;;;;;10.04;100.00;93226.13;2123051;27;20034;-79
2021/09/13 01:45:32;;;;;;;4.75;2.65;;;;;;;10.02;100.00;93229.22;2118272;27;20460;-80
2021/09/13 01:46:33;;;;;;;5.63;2.70;;;;;;;9.98;100.00;93241.88;2120435;27;20103;-81
2021/09/13 01:47:34;;;;;;;5.38;2.78;;;;;;;9.95;100.00;93234.69;2108767;28;20027;-79
2021/09/13 01:48:35;;;;;;;5.80;2.55;;;;;;;9.95;100.00;93237.34;2111958;28;20027;-80
2021/09/13 01:49:35;;;;;;;3.22;2.60;;;;;;;9.91;100.00;93246.59;2114369;28;20109;-81
2021/09/13 01:50:37;;;;;;;4.00;2.35;;;;;;;9.77;100.00;93231.56;2109614;28;20019;-78
2021/09/13 01:51:38;;;;;;;3.63;2.50;;;;;;;9.82;100.00;93236.44;2100170;28;20028;-83
2021/09/13 01:52:39;;;;;;;2.92;2.63;;;;;;;9.84;100.00;93242.88;2120922;27;20106;-80
2021/09/13 01:53:41;;;;;;;2.92;2.72;;;;;;;9.82;100.00;93239.09;2117101;27;20433;-78
2021/09/13 01:54:42;;;;;;;4.55;2.40;;;;;;;9.81;100.00;93238.34;2121901;27;20019;-82
2021/09/13 01:55:43;;;;;;;2.90;2.70;;;;;;;9.84;100.00;93242.13;2116464;27;20096;-81
2021/09/13 01:56:44;;;;;;;2.75;2.55;;;;;;;9.88;100.00;93232.16;2122197;27;20148;-82
2021/09/13 01:57:45;;;;;;;4.13;2.50;;;;;;;9.88;100.00;93234.81;2116272;27;20035;-80
2021/09/13 01:58:46;;;;;;;2.95;2.65;;;;;;;9.76;100.00;93233.47;2121330;27;20091;-79
2021/09/13 01:59:47;;;;;;;6.32;2.70;;;;;;;9.80;100.00;93230.75;2115614;27;20030;-77
2021/09/13 02:00:48;;;;;;;2.22;2.10;;;;;;;9.86;100.00;93228.38;2122733;27;20451;-82
2021/09/13 02:01:48;;;;;;;3.45;2.50;;;;;;;9.90;100.00;93231.72;2115967;27;20103;-80
2021/09/13 02:02:49;;;;;;;3.03;2.70;;;;;;;9.83;100.00;93232.59;2122290;27;20023;-78
2021/09/13 02:03:50;;;;;;;6.65;2.25;;;;;;;9.84;100.00;93226.09;2106495;28;20389;-77
2021/09/13 02:04:51;;;;;;;2.55;2.35;;;;;;;9.87;100.00;93233.28;2114350;28;20031;-79
2021/09/13 02:07:24;;;;;;;;;;;;;;;9.78;100.00;93235.72;2149064;27;20109;-81
2021/09/13 02:08:25;;;;;;;2.72;2.38;;;;;;;9.71;100.00;93230.53;2135252;27;19917;-79
2021/09/13 02:09:26;;;;;;;2.88;1.98;;;;;;;9.68;100.00;93226.75;2125941;27;20476;-82
2021/09/13 02:10:27;;;;;;;2.67;2.47;;;;;;;9.59;100.00;93229.94;2126381;27;20027;-81
2021/09/13 02:11:28;;;;;;;2.67;2.47;;;;;;;9.60;100.00;93225.34;2125500;27;20045;-79
2021/09/13 02:12:30;;;;;;;4.40;2.50;;;;;;;9.62;100.00;93224.97;2126993;27;20072;-82
2021/09/13 02:13:32;;;;;;;2.90;2.58;;;;;;;9.60;100.00;93220.00;2125178;27;20630;-78
2021/09/13 02:14:33;;;;;;;2.75;2.55;;;;;;;9.68;100.00;93226.00;2136046;27;20110;-80
2021/09/13 02:15:34;;;;;;;6.53;2.83;;;;;;;9.68;100.00;93220.66;2133014;27;20031;-82
2021/09/13 02:16:35;;;;;;;3.80;2.55;;;;;;;9.71;100.00;93219.84;2136335;27;20026;-81
2021/09/13 02:17:36;;;;;;;2.90;2.47;;;;;;;9.63;100.00;93229.13;2142258;27;20382;-81
2021/09/13 02:18:37;;;;;;;2.78;2.47;;;;;;;9.56;100.00;93219.31;2145880;27;20108;-78
2021/09/13 02:19:38;;;;;;;9.25;2.55;;;;;;;9.58;100.00;93214.34;2143423;27;20023;-81
2021/09/13 02:20:39;;;;;;;2.72;2.53;;;;;;;9.67;100.00;93222.56;2134176;27;20491;-82
2021/09/13 02:21:40;;;;;;;4.85;2.83;;;;;;;9.58;100.00;93217.75;2136858;27;20034;-76
2021/09/13 02:22:40;;;;;;;8.75;2.58;;;;;;;9.58;100.00;93217.75;2131809;27;20023;-79
2021/09/13 02:23:42;;;;;;;6.50;2.38;;;;;;;9.56;100.00;93217.41;2137183;27;20105;-82
2021/09/13 02:24:43;;;;;;;3.75;2.55;;;;;;;9.67;100.00;93213.81;2131916;27;20031;-82
2021/09/13 02:25:44;;;;;;;2.97;2.42;;;;;;;9.53;100.00;93214.81;2134425;27;20061;-83
2021/09/13 02:26:45;;;;;;;5.00;2.53;;;;;;;9.47;100.00;93214.50;2137700;27;20019;-82
2021/09/13 02:27:46;;;;;;;5.13;2.78;;;;;;;9.49;100.00;93208.78;2140489;27;20399;-83
2021/09/13 02:28:47;;;;;;;3.08;2.60;;;;;;;9.46;100.00;93221.00;2147256;27;20018;-78
2021/09/13 02:29:48;;;;;;;3.22;2.90;;;;;;;9.47;100.00;93213.75;2131076;27;20418;-80
2021/09/13 02:30:49;;;;;;;2.60;2.17;;;;;;;9.51;100.00;93223.19;2120790;27;20054;-80
2021/09/13 02:31:50;;;;;;;3.10;2.80;;;;;;;9.53;100.00;93218.22;2122378;27;20061;-80
2021/09/13 02:32:51;;;;;;;2.75;2.35;;;;;;;9.49;100.00;93222.88;2138134;27;20141;-80
2021/09/13 02:33:52;;;;;;;2.95;2.53;;;;;;;9.50;100.00;93221.69;2130571;27;20031;-79
2021/09/13 02:34:53;;;;;;;3.22;2.40;;;;;;;9.51;100.00;93217.88;2138397;27;20022;-80
2021/09/13 02:35:54;;;;;;;4.95;2.67;;;;;;;9.45;100.00;93219.50;2134474;27;20023;-81
2021/09/13 02:36:55;;;;;;;6.30;2.90;;;;;;;9.29;100.00;93216.69;2138848;27;20037;-82
2021/09/13 02:37:56;;;;;;;3.55;2.50;;;;;;;9.33;100.00;93215.47;2139354;27;20050;-79
2021/09/13 02:38:57;;;;;;;4.47;2.50;;;;;;;9.39;100.00;93220.34;2130375;27;20391;-80
2021/09/13 02:39:58;;;;;;;2.90;2.65;;;;;;;9.39;100.00;93220.34;2117849;27;20088;-81
2021/09/13 02:40:59;;;;;;;3.15;2.80;;;;;;;9.24;100.00;93220.56;2130450;27;20027;-80
2021/09/13 02:42:00;;;;;;;3.00;2.78;;;;;;;9.34;100.00;93224.22;2138896;27;20062;-80
2021/09/13 02:43:01;;;;;;;5.93;2.90;;;;;;;9.36;100.00;93221.19;2130157;27;20096;-78
2021/09/13 02:44:03;;;;;;;2.47;2.28;;;;;;;9.34;100.00;93221.56;2125833;27;20027;-80
2021/09/13 02:45:06;;;;;;;5.07;2.45;;;;;;;9.37;100.00;93220.75;2131472;27;20046;-83
2021/09/13 02:46:06;;;;;;;2.70;2.50;;;;;;;9.38;100.00;93222.28;2128330;27;20027;-83
2021/09/13 02:47:07;;;;;;;4.20;2.80;;;;;;;9.18;100.00;93226.78;2113151;28;20047;-81
2021/09/13 02:48:08;;;;;;;2.88;2.67;;;;;;;9.23;100.00;93224.41;2125374;27;20503;-78
2021/09/13 02:49:09;;;;;;;4.00;2.60;;;;;;;9.26;100.00;93217.50;2130191;27;20050;-78
2021/09/13 02:50:11;;;;;;;4.07;2.97;;;;;;;9.30;100.00;93223.53;2134832;27;20502;-78
2021/09/13 02:51:12;;;;;;;2.60;2.40;;;;;;;9.29;100.00;93224.69;2143595;27;20028;-79
2021/09/13 02:52:13;;;;;;;3.60;2.60;;;;;;;9.30;100.00;93221.63;2132464;27;20419;-80
2021/09/13 02:53:14;;;;;;;2.78;2.58;;;;;;;9.28;100.00;93223.19;2134917;27;20073;-78
2021/09/13 02:54:15;;;;;;;2.72;2.53;;;;;;;9.22;100.00;93222.91;2125183;27;20300;-81
2021/09/13 02:55:16;;;;;;;3.63;2.50;;;;;;;9.23;100.00;93226.31;2133019;27;20023;-77
2021/09/13 02:56:17;;;;;;;2.92;2.55;;;;;;;9.20;100.00;93224.44;2142401;27;20018;-78
2021/09/13 02:57:18;;;;;;;4.10;2.58;;;;;;;9.26;100.00;93222.81;2144556;27;20049;-81
2021/09/13 02:58:19;;;;;;;2.53;2.33;;;;;;;9.17;100.00;93220.66;2142603;27;20041;-79
2021/09/13 02:59:20;;;;;;;3.83;3.15;;;;;;;9.18;100.00;93218.78;2144124;27;20018;-78
2021/09/13 03:00:21;;;;;;;4.10;2.50;;;;;;;9.21;100.00;93220.63;2142804;27;20033;-83
2021/09/13 03:01:22;;;;;;;3.00;2.80;;;;;;;9.15;100.00;93227.59;2144034;27;20025;-81
2021/09/13 03:02:23;;;;;;;2.88;2.38;;;;;;;9.15;100.00;93223.00;2143551;27;20101;-79
2021/09/13 03:03:27;;;;;;;2.65;2.45;;;;;;;9.06;100.00;93215.50;2143858;27;20049;-77
2021/09/13 03:04:28;;;;;;;2.90;2.70;;;;;;;9.10;100.00;93220.78;2133702;27;20503;-82
2021/09/13 03:05:30;;;;;;;2.47;2.28;;;;;;;9.13;100.00;93227.22;2134243;27;20097;-78
2021/09/13 03:06:31;;;;;;;4.57;2.60;;;;;;;9.10;100.00;93220.78;2115935;28;20020;-79
2021/09/13 03:07:33;;;;;;;10.65;2.42;;;;;;;9.04;100.00;93225.06;2109892;28;20031;-83
2021/09/13 03:08:34;;;;;;;2.75;2.55;;;;;;;8.96;100.00;93227.09;2109480;27;20027;-80
2021/09/13 03:09:35;;;;;;;3.22;2.60;;;;;;;9.00;100.00;93224.34;2124368;27;20024;-80
2021/09/13 03:10:36;;;;;;;3.88;2.60;;;;;;;9.07;100.00;93219.66;2136074;27;20026;-78
2021/09/13 03:11:37;;;;;;;2.85;2.60;;;;;;;9.02;100.00;93220.13;2133119;27;20022;-83
2021/09/13 03:12:40;;;;;;;6.25;2.60;;;;;;;9.03;100.00;93231.53;2124889;27;20023;-78
2021/09/13 03:13:41;;;;;;;2.42;2.22;;;;;;;8.94;100.00;93224.06;2128115;27;20027;-81
2021/09/13 03:14:41;;;;;;;2.92;2.72;;;;;;;8.89;100.00;93219.16;2123395;27;20479;-81
2021/09/13 03:15:42;;;;;;;2.90;2.70;;;;;;;8.90;100.00;93228.66;2110708;28;20539;-78
2021/09/13 03:16:43;;;;;;;2.90;2.30;;;;;;;8.85;100.00;93226.47;2114603;28;20035;-78
2021/09/13 03:17:46;;;;;;;2.72;2.53;;;;;;;8.93;100.00;93225.22;2137425;27;20492;-84
2021/09/13 03:18:46;;;;;;;4.35;2.88;;;;;;;8.79;100.00;93220.84;2133227;27;20729;-82
2021/09/13 03:19:47;;;;;;;2.70;2.30;;;;;;;8.85;100.00;93231.78;2112386;28;20020;-82
2021/09/13 03:20:48;;;;;;;2.97;2.55;;;;;;;8.85;100.00;93226.47;2111371;28;20024;-81
2021/09/13 03:21:49;;;;;;;3.05;2.65;;;;;;;8.81;100.00;93220.41;2132494;27;20026;-82
2021/09/13 03:22:50;;;;;;;2.97;2.67;;;;;;;8.88;100.00;93222.25;2119613;27;20030;-78
2021/09/13 03:23:51;;;;;;;2.78;2.58;;;;;;;8.91;100.00;93221.44;2107950;28;20082;-81
2021/09/13 03:24:52;;;;;;;2.95;2.65;;;;;;;8.85;100.00;93220.38;2123653;27;20038;-78
2021/09/13 03:25:53;;;;;;;6.50;2.65;;;;;;;8.71;100.00;93216.00;2107402;28;20039;-79
2021/09/13 03:26:54;;;;;;;3.13;2.70;;;;;;;8.69;100.00;93219.06;2111154;28;20039;-81
2021/09/13 03:27:55;;;;;;;4.20;2.50;;;;;;;8.69;100.00;93216.41;2115006;28;20035;-80
2021/09/13 03:28:56;;;;;;;2.55;2.35;;;;;;;8.61;100.00;93222.97;2115745;28;20020;-79
2021/09/13 03:29:57;;;;;;;3.13;2.42;;;;;;;8.77;100.00;93217.78;2115829;27;20101;-78
2021/09/13 03:30:58;;;;;;;3.17;2.30;;;;;;;8.76;100.00;93218.97;2123518;27;20357;-78
2021/09/13 03:31:58;;;;;;;3.50;2.53;;;;;;;8.78;100.00;93211.34;2116031;27;20384;-82
2021/09/13 03:32:59;;;;;;;2.30;2.10;;;;;;;8.77;100.00;93209.81;2132562;27;20018;-82
2021/09/13 03:34:00;;;;;;;6.03;2.30;;;;;;;8.72;100.00;93209.50;2107783;28;20028;-79
2021/09/13 03:35:02;;;;;;;2.90;2.63;;;;;;;8.76;100.00;93210.22;2107262;28;20028;-81
2021/09/13 03:36:04;;;;;;;10.80;3.05;;;;;;;8.65;100.00;93213.03;2115412;28;20089;-77
2021/09/13 03:37:05;;;;;;;2.90;2.60;;;;;;;8.69;100.00;93213.75;2115987;27;20019;-81
2021/09/13 03:38:06;;;;;;;2.83;2.63;;;;;;;8.67;100.00;93210.72;2117197;27;20023;-78
2021/09/13 03:39:07;;;;;;;3.30;2.80;;;;;;;8.62;100.00;93203.16;2115758;27;20072;-82
2021/09/13 03:40:09;;;;;;;3.95;2.70;;;;;;;8.64;100.00;93219.50;2124604;27;20106;-83
2021/09/13 03:41:10;;;;;;;3.72;2.60;;;;;;;8.69;100.00;93208.41;2126526;27;20459;-79
2021/09/13 03:42:11;;;;;;;2.92;2.55;;;;;;;8.62;100.00;93213.81;2113371;28;20082;-81
2021/09/13 03:43:12;;;;;;;3.38;2.65;;;;;;;8.61;100.00;93214.22;2107095;28;20024;-79
2021/09/13 03:44:12;;;;;;;5.07;2.70;;;;;;;8.65;100.00;93212.25;2109370;28;20024;-81
2021/09/13 03:45:13;;;;;;;2.67;2.38;;;;;;;8.48;100.00;93212.09;2112932;28;20047;-79
2021/09/13 03:46:14;;;;;;;7.70;2.88;;;;;;;8.50;100.00;93211.69;2115454;28;20028;-80
2021/09/13 03:47:16;;;;;;;4.30;2.80;;;;;;;8.55;100.00;93214.66;2115378;28;20026;-77
2021/09/13 03:48:17;;;;;;;2.50;2.30;;;;;;;8.57;100.00;93211.59;2118382;27;20031;-80
2021/09/13 03:49:19;;;;;;;8.45;2.45;;;;;;;8.47;100.00;93210.59;2123948;27;20033;-82
2021/09/13 03:50:20;;;;;;;2.97;2.70;;;;;;;8.53;100.00;93211.66;2110291;28;20114;-79
2021/09/13 03:51:21;;;;;;;3.30;3.00;;;;;;;8.60;100.00;93210.03;2115416;28;20023;-81
2021/09/13 03:52:22;;;;;;;3.20;2.90;;;;;;;8.45;100.00;93212.88;2132425;27;20057;-79
2021/09/13 03:53:23;;;;;;;3.33;3.05;;;;;;;8.50;100.00;93215.09;2129300;27;20045;-80
2021/09/13 03:54:24;;;;;;;5.97;2.78;;;;;;;8.52;100.00;93210.16;2124389;27;20094;-81
2021/09/13 03:55:25;;;;;;;9.88;3.65;;;;;;;8.48;100.00;93209.44;2124434;27;20496;-81
2021/09/13 03:56:25;;;;;;;4.18;2.42;;;;;;;8.49;100.00;93212.84;2115179;28;20030;-81
2021/09/13 03:57:26;;;;;;;4.75;2.47;;;;;;;8.48;100.00;93208.69;2115605;28;20015;-80
2021/09/13 03:58:27;;;;;;;4.97;2.63;;;;;;;8.40;100.00;93213.34;2111078;28;20019;-82
2021/09/13 03:59:28;;;;;;;4.70;2.45;;;;;;;8.50;100.00;93212.44;2102209;28;20030;-82
2021/09/13 04:00:30;;;;;;;3.58;2.85;;;;;;;8.33;100.00;93219.44;2103177;28;20034;-82
2021/09/13 04:01:31;;;;;;;6.00;2.50;;;;;;;8.39;100.00;93214.50;2110281;28;20024;-80
2021/09/13 04:02:32;;;;;;;2.70;2.50;;;;;;;8.42;100.00;93210.25;2118443;27;20110;-80
2021/09/13 04:03:45;;;;;;;2.80;2.60;;;;;;;8.47;100.00;93207.94;2129470;27;20428;-81
2021/09/13 04:04:49;;;;;;;3.95;3.13;;;;;;;8.44;100.00;93211.38;2108142;28;20032;-80
2021/09/13 04:05:53;;;;;;;4.32;3.00;;;;;;;8.45;100.00;93206.81;2107152;28;20031;-79
2021/09/13 04:07:00;;;;;;;2.47;2.28;;;;;;;8.40;100.00;93208.00;2115458;28;20099;-78
2021/09/13 04:08:37;;;;;;;3.10;2.50;;;;;;;8.36;100.00;93209.91;2111080;27;20182;-78
2021/09/13 04:12:49;;;;;;;3.65;2.47;;;;;;;8.29;100.00;93210.75;2119259;27;20020;-78
2021/09/13 04:13:50;;;;;;;2.97;2.38;;;;;;;8.33;100.00;93203.47;2122907;27;20058;-78
2021/09/13 04:14:51;;;;;;;2.95;2.65;;;;;;;8.27;100.00;93199.75;2115912;27;20020;-80
2021/09/13 04:15:52;;;;;;;4.45;2.60;;;;;;;8.29;100.00;93199.34;2114438;28;20027;-81
2021/09/13 04:16:53;;;;;;;4.40;3.15;;;;;;;8.26;100.00;93208.16;2115699;27;20019;-78
2021/09/13 04:17:54;;;;;;;4.82;2.70;;;;;;;8.19;100.00;93203.66;2114856;28;20027;-81
2021/09/13 04:18:55;;;;;;;3.30;2.70;;;;;;;8.29;100.00;93202.00;2115405;28;20028;-80
2021/09/13 04:19:56;;;;;;;3.13;2.88;;;;;;;8.20;100.00;93196.41;2124343;27;20023;-76
2021/09/13 04:20:57;;;;;;;3.20;2.95;;;;;;;8.17;100.00;93194.56;2132673;27;20083;-78
2021/09/13 04:21:58;;;;;;;2.83;2.53;;;;;;;8.09;100.00;93196.53;2119262;27;20026;-80
2021/09/13 04:22:59;;;;;;;3.95;2.58;;;;;;;8.11;100.00;93191.56;2115447;27;20015;-81
2021/09/13 04:24:00;;;;;;;2.72;2.50;;;;;;;8.05;100.00;93199.25;2114597;28;20063;-80
2021/09/13 04:25:01;;;;;;;2.72;2.42;;;;;;;8.00;100.00;93194.34;2107762;27;20027;-80
2021/09/13 04:26:02;;;;;;;9.43;2.72;;;;;;;8.11;100.00;93196.88;2131853;27;20021;-80
2021/09/13 04:27:04;;;;;;;2.80;2.60;;;;;;;8.14;100.00;93196.09;2115966;27;20023;-80
2021/09/13 04:28:05;;;;;;;2.95;2.65;;;;;;;8.05;100.00;93190.50;2123580;27;20088;-80
2021/09/13 04:29:06;;;;;;;2.80;2.60;;;;;;;8.05;100.00;93190.50;2123687;27;20495;-79
2021/09/13 04:30:07;;;;;;;6.80;2.80;;;;;;;8.01;100.00;93192.44;2112751;28;20020;-80
2021/09/13 04:31:08;;;;;;;2.70;2.50;;;;;;;8.05;100.00;93201.91;2108012;28;20020;-80
2021/09/13 04:32:09;;;;;;;3.38;2.50;;;;;;;8.13;100.00;93202.59;2113157;28;20227;-81
2021/09/13 04:33:10;;;;;;;3.25;2.95;;;;;;;8.09;100.00;93199.22;2116956;27;20050;-83
2021/09/13 04:34:11;;;;;;;5.72;2.63;;;;;;;8.02;100.00;93199.28;2121558;27;20107;-82
2021/09/13 04:35:12;;;;;;;4.00;3.10;;;;;;;8.13;100.00;93194.59;2117224;27;20410;-83
2021/09/13 04:36:13;;;;;;;3.22;3.00;;;;;;;8.08;100.00;93197.69;2121228;27;20019;-80
2021/09/13 04:37:14;;;;;;;6.00;2.80;;;;;;;8.02;100.00;93200.03;2124146;27;20027;-80
2021/09/13 04:38:16;;;;;;;3.10;2.90;;;;;;;8.07;100.00;93196.91;2114991;28;20031;-81
2021/09/13 04:39:16;;;;;;;2.90;2.60;;;;;;;7.97;100.00;93192.47;2109453;28;20016;-82
2021/09/13 04:40:17;;;;;;;6.53;3.17;;;;;;;8.00;100.00;93191.69;2120449;27;20081;-80
2021/09/13 04:41:19;;;;;;;3.95;3.58;;;;;;;8.00;100.00;93199.69;2126472;27;20057;-81
2021/09/13 04:42:19;;;;;;;3.67;3.25;;;;;;;7.96;100.00;93193.63;2120313;27;20395;-80
2021/09/13 04:43:21;;;;;;;3.03;2.83;;;;;;;7.99;100.00;93195.50;2118237;27;20023;-80
2021/09/13 04:44:21;;;;;;;8.40;2.90;;;;;;;7.90;100.00;93192.56;2129228;27;20027;-77
2021/09/13 04:45:22;;;;;;;3.75;2.72;;;;;;;7.95;100.00;93194.03;2106459;28;20023;-81
2021/09/13 04:46:23;;;;;;;3.78;2.47;;;;;;;8.00;100.00;93197.03;2106507;28;20028;-80
2021/09/13 04:47:24;;;;;;;3.28;2.92;;;;;;;7.91;100.00;93191.41;2131162;27;20026;-81
2021/09/13 04:48:25;;;;;;;3.40;3.10;;;;;;;7.99;100.00;93189.41;2114218;27;20099;-80
2021/09/13 04:49:26;;;;;;;3.95;2.90;;;;;;;7.90;100.00;93191.78;2123166;27;20023;-79
2021/09/13 04:50:27;;;;;;;3.05;2.70;;;;;;;7.99;100.00;93195.50;2121501;27;20375;-80
2021/09/13 04:51:29;;;;;;;3.20;2.65;;;;;;;7.95;100.00;93194.78;2123409;27;20031;-78
2021/09/13 04:52:30;;;;;;;4.97;2.75;;;;;;;7.87;100.00;93193.34;2127826;27;20057;-82